sensor_id;sensor_type;location;lat;lon;timestamp;P1;durP1;ratioP1;P2;durP2;ratioP2
77010;SDS011;65945;53.148;17.956;2023-08-30T00:01:01;19.20;;;10.00;;
77010;SDS011;65945;53.148;17.956;2023-08-30T00:03:33;20.20;;;11.40;;
77010;SDS011;65945;53.148;17.956;2023-08-30T00:06:03;18.80;;;11.40;;
77010;SDS011;65945;53.148;17.956;2023-08-30T00:08:31;24.40;;;10.80;;
77010;SDS011;65945;53.148;17.956;2023-08-30T00:10:59;20.60;;;10.90;;
77010;SDS011;65945;53.148;17.956;2023-08-30T00:13:26;20.10;;;10.80;;
77010;SDS011;65945;53.148;17.956;2023-08-30T00:15:53;21.50;;;10.70;;
77010;SDS011;65945;53.148;17.956;2023-08-30T00:18:20;23.00;;;11.10;;
77010;SDS011;65945;53.148;17.956;2023-08-30T00:20:47;20.30;;;10.70;;
77010;SDS011;65945;53.148;17.956;2023-08-30T00:23:14;20.00;;;10.70;;
77010;SDS011;65945;53.148;17.956;2023-08-30T00:25:40;18.80;;;9.70;;
77010;SDS011;65945;53.148;17.956;2023-08-30T00:28:07;20.00;;;11.20;;
77010;SDS011;65945;53.148;17.956;2023-08-30T00:30:34;19.50;;;10.60;;
77010;SDS011;65945;53.148;17.956;2023-08-30T00:33:04;17.90;;;10.40;;
77010;SDS011;65945;53.148;17.956;2023-08-30T00:35:31;20.10;;;10.30;;
77010;SDS011;65945;53.148;17.956;2023-08-30T00:37:57;20.70;;;11.10;;
77010;SDS011;65945;53.148;17.956;2023-08-30T00:40:24;16.90;;;10.00;;
77010;SDS011;65945;53.148;17.956;2023-08-30T00:42:51;20.60;;;10.90;;
77010;SDS011;65945;53.148;17.956;2023-08-30T00:45:19;16.30;;;9.30;;
77010;SDS011;65945;53.148;17.956;2023-08-30T00:47:45;19.00;;;10.50;;
77010;SDS011;65945;53.148;17.956;2023-08-30T00:50:12;18.80;;;10.50;;
77010;SDS011;65945;53.148;17.956;2023-08-30T00:52:40;24.20;;;10.00;;
77010;SDS011;65945;53.148;17.956;2023-08-30T00:55:07;18.60;;;10.10;;
77010;SDS011;65945;53.148;17.956;2023-08-30T00:57:34;20.50;;;10.10;;
77010;SDS011;65945;53.148;17.956;2023-08-30T01:00:01;17.60;;;9.30;;
77010;SDS011;65945;53.148;17.956;2023-08-30T01:02:31;18.30;;;10.00;;
77010;SDS011;65945;53.148;17.956;2023-08-30T01:04:58;18.90;;;9.90;;
77010;SDS011;65945;53.148;17.956;2023-08-30T01:07:24;18.50;;;9.90;;
77010;SDS011;65945;53.148;17.956;2023-08-30T01:09:53;19.30;;;10.10;;
77010;SDS011;65945;53.148;17.956;2023-08-30T01:12:22;20.60;;;9.90;;
77010;SDS011;65945;53.148;17.956;2023-08-30T01:14:58;21.10;;;9.80;;
77010;SDS011;65945;53.148;17.956;2023-08-30T01:17:29;19.00;;;9.30;;
77010;SDS011;65945;53.148;17.956;2023-08-30T01:20:00;19.10;;;9.80;;
77010;SDS011;65945;53.148;17.956;2023-08-30T01:22:45;20.20;;;8.90;;
77010;SDS011;65945;53.148;17.956;2023-08-30T01:25:30;18.20;;;10.00;;
77010;SDS011;65945;53.148;17.956;2023-08-30T01:28:04;18.70;;;9.80;;
77010;SDS011;65945;53.148;17.956;2023-08-30T01:30:33;23.00;;;9.90;;
77010;SDS011;65945;53.148;17.956;2023-08-30T01:33:03;21.70;;;9.70;;
77010;SDS011;65945;53.148;17.956;2023-08-30T01:35:32;19.70;;;9.50;;
77010;SDS011;65945;53.148;17.956;2023-08-30T01:38:02;20.20;;;9.10;;
77010;SDS011;65945;53.148;17.956;2023-08-30T01:40:32;18.10;;;9.90;;
77010;SDS011;65945;53.148;17.956;2023-08-30T01:43:02;17.00;;;8.70;;
77010;SDS011;65945;53.148;17.956;2023-08-30T01:45:32;19.10;;;9.30;;
77010;SDS011;65945;53.148;17.956;2023-08-30T01:48:01;17.50;;;8.80;;
77010;SDS011;65945;53.148;17.956;2023-08-30T01:50:29;18.60;;;9.10;;
77010;SDS011;65945;53.148;17.956;2023-08-30T01:52:57;16.60;;;8.70;;
77010;SDS011;65945;53.148;17.956;2023-08-30T01:55:25;16.30;;;8.90;;
77010;SDS011;65945;53.148;17.956;2023-08-30T01:57:54;15.80;;;8.40;;
77010;SDS011;65945;53.148;17.956;2023-08-30T02:00:21;13.50;;;7.40;;
77010;SDS011;65945;53.148;17.956;2023-08-30T02:02:48;15.00;;;8.00;;
77010;SDS011;65945;53.148;17.956;2023-08-30T02:05:14;15.70;;;7.80;;
77010;SDS011;65945;53.148;17.956;2023-08-30T02:10:36;10.20;;;6.40;;
77010;SDS011;65945;53.148;17.956;2023-08-30T02:13:07;11.10;;;6.30;;
77010;SDS011;65945;53.148;17.956;2023-08-30T02:15:37;12.10;;;6.10;;
77010;SDS011;65945;53.148;17.956;2023-08-30T02:18:08;10.60;;;6.10;;
77010;SDS011;65945;53.148;17.956;2023-08-30T02:20:35;10.70;;;6.10;;
77010;SDS011;65945;53.148;17.956;2023-08-30T02:23:02;11.60;;;6.70;;
77010;SDS011;65945;53.148;17.956;2023-08-30T02:25:28;13.80;;;7.30;;
77010;SDS011;65945;53.148;17.956;2023-08-30T02:27:55;14.10;;;7.00;;
77010;SDS011;65945;53.148;17.956;2023-08-30T02:30:21;11.40;;;6.60;;
77010;SDS011;65945;53.148;17.956;2023-08-30T02:32:48;12.70;;;6.60;;
77010;SDS011;65945;53.148;17.956;2023-08-30T02:35:16;11.10;;;5.90;;
77010;SDS011;65945;53.148;17.956;2023-08-30T02:37:43;9.60;;;5.70;;
77010;SDS011;65945;53.148;17.956;2023-08-30T02:40:10;9.60;;;6.20;;
77010;SDS011;65945;53.148;17.956;2023-08-30T02:42:38;11.50;;;6.20;;
77010;SDS011;65945;53.148;17.956;2023-08-30T02:45:05;8.90;;;5.60;;
77010;SDS011;65945;53.148;17.956;2023-08-30T02:47:32;9.20;;;5.30;;
77010;SDS011;65945;53.148;17.956;2023-08-30T02:50:00;9.40;;;5.60;;
77010;SDS011;65945;53.148;17.956;2023-08-30T02:52:27;9.80;;;5.00;;
77010;SDS011;65945;53.148;17.956;2023-08-30T02:54:54;10.70;;;4.30;;
77010;SDS011;65945;53.148;17.956;2023-08-30T02:57:20;7.80;;;4.50;;
77010;SDS011;65945;53.148;17.956;2023-08-30T02:59:47;8.00;;;4.40;;
77010;SDS011;65945;53.148;17.956;2023-08-30T03:02:14;8.10;;;4.20;;
77010;SDS011;65945;53.148;17.956;2023-08-30T03:04:40;10.20;;;4.80;;
77010;SDS011;65945;53.148;17.956;2023-08-30T03:07:07;8.80;;;4.20;;
77010;SDS011;65945;53.148;17.956;2023-08-30T03:09:33;6.70;;;3.90;;
77010;SDS011;65945;53.148;17.956;2023-08-30T03:12:00;7.00;;;3.70;;
77010;SDS011;65945;53.148;17.956;2023-08-30T03:14:26;8.90;;;4.60;;
77010;SDS011;65945;53.148;17.956;2023-08-30T03:16:53;8.20;;;5.00;;
77010;SDS011;65945;53.148;17.956;2023-08-30T03:19:20;6.30;;;3.90;;
77010;SDS011;65945;53.148;17.956;2023-08-30T03:21:47;6.00;;;3.40;;
77010;SDS011;65945;53.148;17.956;2023-08-30T03:24:13;9.60;;;3.80;;
77010;SDS011;65945;53.148;17.956;2023-08-30T03:26:42;6.50;;;4.10;;
77010;SDS011;65945;53.148;17.956;2023-08-30T03:29:10;7.30;;;3.80;;
77010;SDS011;65945;53.148;17.956;2023-08-30T03:31:36;7.00;;;3.90;;
77010;SDS011;65945;53.148;17.956;2023-08-30T03:34:03;6.20;;;3.80;;
77010;SDS011;65945;53.148;17.956;2023-08-30T03:36:29;8.60;;;4.30;;
77010;SDS011;65945;53.148;17.956;2023-08-30T03:38:56;7.10;;;4.00;;
77010;SDS011;65945;53.148;17.956;2023-08-30T03:41:23;8.50;;;4.00;;
77010;SDS011;65945;53.148;17.956;2023-08-30T03:43:49;5.30;;;3.20;;
77010;SDS011;65945;53.148;17.956;2023-08-30T03:46:16;5.60;;;3.50;;
77010;SDS011;65945;53.148;17.956;2023-08-30T03:48:42;6.90;;;3.30;;
77010;SDS011;65945;53.148;17.956;2023-08-30T03:51:09;8.60;;;3.30;;
77010;SDS011;65945;53.148;17.956;2023-08-30T03:53:36;5.50;;;3.40;;
77010;SDS011;65945;53.148;17.956;2023-08-30T03:56:03;7.00;;;3.60;;
77010;SDS011;65945;53.148;17.956;2023-08-30T03:58:32;6.90;;;3.80;;
77010;SDS011;65945;53.148;17.956;2023-08-30T04:00:59;6.50;;;3.80;;
77010;SDS011;65945;53.148;17.956;2023-08-30T04:03:26;10.30;;;5.70;;
77010;SDS011;65945;53.148;17.956;2023-08-30T04:05:55;6.70;;;4.20;;
77010;SDS011;65945;53.148;17.956;2023-08-30T04:08:23;8.50;;;4.70;;
77010;SDS011;65945;53.148;17.956;2023-08-30T04:10:51;9.70;;;4.90;;
77010;SDS011;65945;53.148;17.956;2023-08-30T04:13:19;9.60;;;5.10;;
77010;SDS011;65945;53.148;17.956;2023-08-30T04:15:46;8.00;;;4.80;;
77010;SDS011;65945;53.148;17.956;2023-08-30T04:18:13;7.30;;;4.90;;
77010;SDS011;65945;53.148;17.956;2023-08-30T04:20:46;8.50;;;4.20;;
77010;SDS011;65945;53.148;17.956;2023-08-30T04:23:13;9.80;;;4.90;;
77010;SDS011;65945;53.148;17.956;2023-08-30T04:25:40;11.30;;;4.80;;
77010;SDS011;65945;53.148;17.956;2023-08-30T04:28:07;11.60;;;4.90;;
77010;SDS011;65945;53.148;17.956;2023-08-30T04:30:35;6.80;;;4.40;;
77010;SDS011;65945;53.148;17.956;2023-08-30T04:33:03;9.70;;;5.00;;
77010;SDS011;65945;53.148;17.956;2023-08-30T04:35:30;8.40;;;5.00;;
77010;SDS011;65945;53.148;17.956;2023-08-30T04:37:59;8.70;;;4.60;;
77010;SDS011;65945;53.148;17.956;2023-08-30T04:40:27;8.90;;;4.90;;
77010;SDS011;65945;53.148;17.956;2023-08-30T04:42:54;9.60;;;4.20;;
77010;SDS011;65945;53.148;17.956;2023-08-30T04:45:21;9.90;;;5.10;;
77010;SDS011;65945;53.148;17.956;2023-08-30T04:47:48;8.90;;;5.10;;
77010;SDS011;65945;53.148;17.956;2023-08-30T04:50:15;10.30;;;5.40;;
77010;SDS011;65945;53.148;17.956;2023-08-30T04:52:43;9.90;;;5.40;;
77010;SDS011;65945;53.148;17.956;2023-08-30T04:55:09;10.20;;;5.20;;
77010;SDS011;65945;53.148;17.956;2023-08-30T04:57:36;9.10;;;5.30;;
77010;SDS011;65945;53.148;17.956;2023-08-30T05:00:04;11.20;;;5.60;;
77010;SDS011;65945;53.148;17.956;2023-08-30T05:02:32;10.60;;;5.20;;
77010;SDS011;65945;53.148;17.956;2023-08-30T05:05:02;9.00;;;4.70;;
77010;SDS011;65945;53.148;17.956;2023-08-30T05:07:29;8.10;;;4.10;;
77010;SDS011;65945;53.148;17.956;2023-08-30T05:09:56;7.60;;;3.80;;
77010;SDS011;65945;53.148;17.956;2023-08-30T05:12:23;7.70;;;3.90;;
77010;SDS011;65945;53.148;17.956;2023-08-30T05:14:49;6.40;;;3.70;;
77010;SDS011;65945;53.148;17.956;2023-08-30T05:17:16;7.90;;;4.00;;
77010;SDS011;65945;53.148;17.956;2023-08-30T05:19:43;7.70;;;3.90;;
77010;SDS011;65945;53.148;17.956;2023-08-30T05:22:09;6.70;;;3.60;;
77010;SDS011;65945;53.148;17.956;2023-08-30T05:24:36;6.00;;;3.70;;
77010;SDS011;65945;53.148;17.956;2023-08-30T05:27:03;6.50;;;3.40;;
77010;SDS011;65945;53.148;17.956;2023-08-30T05:29:37;7.60;;;3.80;;
77010;SDS011;65945;53.148;17.956;2023-08-30T05:32:04;7.20;;;3.50;;
77010;SDS011;65945;53.148;17.956;2023-08-30T05:34:46;6.90;;;3.60;;
77010;SDS011;65945;53.148;17.956;2023-08-30T05:37:31;6.50;;;2.90;;
77010;SDS011;65945;53.148;17.956;2023-08-30T05:40:16;6.00;;;3.20;;
77010;SDS011;65945;53.148;17.956;2023-08-30T05:42:44;7.70;;;3.40;;
77010;SDS011;65945;53.148;17.956;2023-08-30T05:45:11;5.20;;;3.00;;
77010;SDS011;65945;53.148;17.956;2023-08-30T05:47:38;6.30;;;3.30;;
77010;SDS011;65945;53.148;17.956;2023-08-30T05:50:06;6.10;;;3.30;;
77010;SDS011;65945;53.148;17.956;2023-08-30T05:52:33;5.70;;;3.40;;
77010;SDS011;65945;53.148;17.956;2023-08-30T05:54:59;10.20;;;4.20;;
77010;SDS011;65945;53.148;17.956;2023-08-30T05:57:27;5.60;;;3.40;;
77010;SDS011;65945;53.148;17.956;2023-08-30T05:59:59;7.30;;;4.00;;
77010;SDS011;65945;53.148;17.956;2023-08-30T06:02:27;8.60;;;3.70;;
77010;SDS011;65945;53.148;17.956;2023-08-30T06:04:53;8.20;;;3.70;;
77010;SDS011;65945;53.148;17.956;2023-08-30T06:07:20;8.60;;;4.00;;
77010;SDS011;65945;53.148;17.956;2023-08-30T06:09:47;6.70;;;3.90;;
77010;SDS011;65945;53.148;17.956;2023-08-30T06:12:13;7.30;;;3.70;;
77010;SDS011;65945;53.148;17.956;2023-08-30T06:14:40;7.00;;;3.70;;
77010;SDS011;65945;53.148;17.956;2023-08-30T06:17:07;6.90;;;3.90;;
77010;SDS011;65945;53.148;17.956;2023-08-30T06:19:33;9.10;;;3.70;;
77010;SDS011;65945;53.148;17.956;2023-08-30T06:22:00;5.80;;;3.00;;
77010;SDS011;65945;53.148;17.956;2023-08-30T06:24:27;4.10;;;2.90;;
77010;SDS011;65945;53.148;17.956;2023-08-30T06:26:54;4.40;;;2.80;;
77010;SDS011;65945;53.148;17.956;2023-08-30T06:29:20;5.80;;;2.90;;
77010;SDS011;65945;53.148;17.956;2023-08-30T06:31:47;7.00;;;3.00;;
77010;SDS011;65945;53.148;17.956;2023-08-30T06:34:13;6.50;;;2.90;;
77010;SDS011;65945;53.148;17.956;2023-08-30T06:36:40;5.10;;;2.80;;
77010;SDS011;65945;53.148;17.956;2023-08-30T06:39:07;4.90;;;2.60;;
77010;SDS011;65945;53.148;17.956;2023-08-30T06:41:33;5.40;;;2.90;;
77010;SDS011;65945;53.148;17.956;2023-08-30T06:44:00;5.10;;;2.70;;
77010;SDS011;65945;53.148;17.956;2023-08-30T06:46:26;5.80;;;3.00;;
77010;SDS011;65945;53.148;17.956;2023-08-30T06:48:53;5.40;;;2.90;;
77010;SDS011;65945;53.148;17.956;2023-08-30T06:51:20;4.40;;;2.80;;
77010;SDS011;65945;53.148;17.956;2023-08-30T06:53:46;6.10;;;3.10;;
77010;SDS011;65945;53.148;17.956;2023-08-30T06:56:13;4.90;;;2.90;;
77010;SDS011;65945;53.148;17.956;2023-08-30T06:58:40;6.70;;;3.80;;
77010;SDS011;65945;53.148;17.956;2023-08-30T07:01:06;9.10;;;3.60;;
77010;SDS011;65945;53.148;17.956;2023-08-30T07:03:33;4.10;;;2.80;;
77010;SDS011;65945;53.148;17.956;2023-08-30T07:05:59;4.10;;;2.50;;
77010;SDS011;65945;53.148;17.956;2023-08-30T07:08:26;5.10;;;2.80;;
77010;SDS011;65945;53.148;17.956;2023-08-30T07:10:53;4.30;;;2.70;;
77010;SDS011;65945;53.148;17.956;2023-08-30T07:13:19;5.70;;;2.60;;
77010;SDS011;65945;53.148;17.956;2023-08-30T07:15:46;4.60;;;2.70;;
77010;SDS011;65945;53.148;17.956;2023-08-30T07:18:13;4.80;;;2.60;;
77010;SDS011;65945;53.148;17.956;2023-08-30T07:20:39;4.90;;;2.70;;
77010;SDS011;65945;53.148;17.956;2023-08-30T07:23:06;6.20;;;2.60;;
77010;SDS011;65945;53.148;17.956;2023-08-30T07:25:32;4.60;;;2.70;;
77010;SDS011;65945;53.148;17.956;2023-08-30T07:27:59;3.70;;;2.70;;
77010;SDS011;65945;53.148;17.956;2023-08-30T07:30:26;4.00;;;2.40;;
77010;SDS011;65945;53.148;17.956;2023-08-30T07:32:53;4.00;;;2.80;;
77010;SDS011;65945;53.148;17.956;2023-08-30T07:35:20;4.30;;;2.60;;
77010;SDS011;65945;53.148;17.956;2023-08-30T07:37:47;5.30;;;2.50;;
77010;SDS011;65945;53.148;17.956;2023-08-30T07:40:13;4.30;;;2.60;;
77010;SDS011;65945;53.148;17.956;2023-08-30T07:42:40;3.30;;;2.30;;
77010;SDS011;65945;53.148;17.956;2023-08-30T07:45:07;2.90;;;2.20;;
77010;SDS011;65945;53.148;17.956;2023-08-30T07:47:35;3.20;;;2.10;;
77010;SDS011;65945;53.148;17.956;2023-08-30T07:50:01;15.40;;;2.90;;
77010;SDS011;65945;53.148;17.956;2023-08-30T07:52:30;3.10;;;2.00;;
77010;SDS011;65945;53.148;17.956;2023-08-30T07:54:57;3.10;;;1.70;;
77010;SDS011;65945;53.148;17.956;2023-08-30T07:57:23;1.80;;;1.60;;
77010;SDS011;65945;53.148;17.956;2023-08-30T07:59:50;2.50;;;1.50;;
77010;SDS011;65945;53.148;17.956;2023-08-30T08:02:17;2.40;;;1.70;;
77010;SDS011;65945;53.148;17.956;2023-08-30T08:04:43;3.20;;;1.60;;
77010;SDS011;65945;53.148;17.956;2023-08-30T08:07:10;3.20;;;1.20;;
77010;SDS011;65945;53.148;17.956;2023-08-30T08:09:37;3.50;;;1.60;;
77010;SDS011;65945;53.148;17.956;2023-08-30T08:12:05;1.40;;;1.30;;
77010;SDS011;65945;53.148;17.956;2023-08-30T08:14:32;2.50;;;1.10;;
77010;SDS011;65945;53.148;17.956;2023-08-30T08:16:58;1.90;;;0.80;;
77010;SDS011;65945;53.148;17.956;2023-08-30T08:19:25;2.50;;;1.30;;
77010;SDS011;65945;53.148;17.956;2023-08-30T08:21:51;2.30;;;1.20;;
77010;SDS011;65945;53.148;17.956;2023-08-30T08:24:21;1.50;;;1.10;;
77010;SDS011;65945;53.148;17.956;2023-08-30T08:26:48;1.10;;;1.00;;
77010;SDS011;65945;53.148;17.956;2023-08-30T08:29:14;1.90;;;1.10;;
77010;SDS011;65945;53.148;17.956;2023-08-30T08:31:41;1.60;;;0.90;;
77010;SDS011;65945;53.148;17.956;2023-08-30T08:34:11;2.20;;;1.30;;
77010;SDS011;65945;53.148;17.956;2023-08-30T08:36:39;1.80;;;1.10;;
77010;SDS011;65945;53.148;17.956;2023-08-30T08:39:08;2.70;;;1.00;;
77010;SDS011;65945;53.148;17.956;2023-08-30T08:41:39;1.60;;;1.20;;
77010;SDS011;65945;53.148;17.956;2023-08-30T08:44:10;1.10;;;0.90;;
77010;SDS011;65945;53.148;17.956;2023-08-30T08:46:39;1.30;;;1.10;;
77010;SDS011;65945;53.148;17.956;2023-08-30T08:49:13;1.20;;;1.00;;
77010;SDS011;65945;53.148;17.956;2023-08-30T08:51:41;1.80;;;1.00;;
77010;SDS011;65945;53.148;17.956;2023-08-30T08:54:09;2.10;;;1.30;;
77010;SDS011;65945;53.148;17.956;2023-08-30T08:56:37;4.00;;;1.50;;
77010;SDS011;65945;53.148;17.956;2023-08-30T08:59:04;2.50;;;1.60;;
77010;SDS011;65945;53.148;17.956;2023-08-30T09:01:35;5.20;;;1.80;;
77010;SDS011;65945;53.148;17.956;2023-08-30T09:04:05;6.00;;;1.60;;
77010;SDS011;65945;53.148;17.956;2023-08-30T09:06:36;1.70;;;0.90;;
77010;SDS011;65945;53.148;17.956;2023-08-30T09:09:05;2.60;;;1.10;;
77010;SDS011;65945;53.148;17.956;2023-08-30T09:11:34;3.30;;;1.10;;
77010;SDS011;65945;53.148;17.956;2023-08-30T09:14:01;1.40;;;1.10;;
77010;SDS011;65945;53.148;17.956;2023-08-30T09:16:28;2.30;;;1.30;;
77010;SDS011;65945;53.148;17.956;2023-08-30T09:18:58;2.80;;;1.10;;
77010;SDS011;65945;53.148;17.956;2023-08-30T09:21:26;1.40;;;1.00;;
77010;SDS011;65945;53.148;17.956;2023-08-30T09:23:57;1.80;;;1.10;;
77010;SDS011;65945;53.148;17.956;2023-08-30T09:26:25;2.20;;;1.50;;
77010;SDS011;65945;53.148;17.956;2023-08-30T09:28:55;3.50;;;1.10;;
77010;SDS011;65945;53.148;17.956;2023-08-30T09:31:22;2.70;;;1.20;;
77010;SDS011;65945;53.148;17.956;2023-08-30T09:33:49;1.70;;;1.10;;
77010;SDS011;65945;53.148;17.956;2023-08-30T09:36:15;1.10;;;0.90;;
77010;SDS011;65945;53.148;17.956;2023-08-30T09:38:47;1.20;;;1.10;;
77010;SDS011;65945;53.148;17.956;2023-08-30T09:41:15;2.10;;;1.40;;
77010;SDS011;65945;53.148;17.956;2023-08-30T09:43:42;1.50;;;0.90;;
77010;SDS011;65945;53.148;17.956;2023-08-30T09:46:09;1.40;;;1.00;;
77010;SDS011;65945;53.148;17.956;2023-08-30T09:48:37;1.40;;;1.00;;
77010;SDS011;65945;53.148;17.956;2023-08-30T09:51:04;2.00;;;1.10;;
77010;SDS011;65945;53.148;17.956;2023-08-30T09:53:36;1.60;;;1.10;;
77010;SDS011;65945;53.148;17.956;2023-08-30T09:56:13;1.50;;;1.20;;
77010;SDS011;65945;53.148;17.956;2023-08-30T09:58:41;1.90;;;1.30;;
77010;SDS011;65945;53.148;17.956;2023-08-30T10:01:08;1.20;;;1.10;;
77010;SDS011;65945;53.148;17.956;2023-08-30T10:03:35;1.10;;;1.00;;
77010;SDS011;65945;53.148;17.956;2023-08-30T10:06:02;2.30;;;1.20;;
77010;SDS011;65945;53.148;17.956;2023-08-30T10:08:33;4.50;;;1.30;;
77010;SDS011;65945;53.148;17.956;2023-08-30T10:11:00;3.90;;;1.00;;
77010;SDS011;65945;53.148;17.956;2023-08-30T10:13:28;1.50;;;0.90;;
77010;SDS011;65945;53.148;17.956;2023-08-30T10:15:58;1.20;;;0.90;;
77010;SDS011;65945;53.148;17.956;2023-08-30T10:18:29;1.70;;;1.10;;
77010;SDS011;65945;53.148;17.956;2023-08-30T10:20:58;1.20;;;1.00;;
77010;SDS011;65945;53.148;17.956;2023-08-30T10:23:26;1.40;;;1.20;;
77010;SDS011;65945;53.148;17.956;2023-08-30T10:25:54;2.60;;;1.10;;
77010;SDS011;65945;53.148;17.956;2023-08-30T10:28:22;2.40;;;1.20;;
77010;SDS011;65945;53.148;17.956;2023-08-30T10:30:50;3.40;;;1.20;;
77010;SDS011;65945;53.148;17.956;2023-08-30T10:33:18;1.70;;;1.20;;
77010;SDS011;65945;53.148;17.956;2023-08-30T10:35:47;3.50;;;1.30;;
77010;SDS011;65945;53.148;17.956;2023-08-30T10:38:24;2.30;;;1.30;;
77010;SDS011;65945;53.148;17.956;2023-08-30T10:40:53;2.00;;;1.30;;
77010;SDS011;65945;53.148;17.956;2023-08-30T10:43:30;1.60;;;1.20;;
77010;SDS011;65945;53.148;17.956;2023-08-30T10:46:03;3.30;;;1.20;;
77010;SDS011;65945;53.148;17.956;2023-08-30T10:48:36;2.80;;;1.70;;
77010;SDS011;65945;53.148;17.956;2023-08-30T10:51:06;2.90;;;1.40;;
77010;SDS011;65945;53.148;17.956;2023-08-30T10:53:56;6.50;;;2.40;;
77010;SDS011;65945;53.148;17.956;2023-08-30T10:56:28;3.90;;;1.90;;
77010;SDS011;65945;53.148;17.956;2023-08-30T10:58:56;3.50;;;1.90;;
77010;SDS011;65945;53.148;17.956;2023-08-30T11:01:23;2.90;;;2.00;;
77010;SDS011;65945;53.148;17.956;2023-08-30T11:03:50;2.90;;;2.00;;
77010;SDS011;65945;53.148;17.956;2023-08-30T11:06:17;3.40;;;2.00;;
77010;SDS011;65945;53.148;17.956;2023-08-30T11:08:43;5.40;;;2.20;;
77010;SDS011;65945;53.148;17.956;2023-08-30T11:11:10;6.10;;;2.00;;
77010;SDS011;65945;53.148;17.956;2023-08-30T11:13:38;2.70;;;1.90;;
77010;SDS011;65945;53.148;17.956;2023-08-30T11:16:04;3.30;;;1.80;;
77010;SDS011;65945;53.148;17.956;2023-08-30T11:18:36;2.40;;;1.90;;
77010;SDS011;65945;53.148;17.956;2023-08-30T11:21:04;5.00;;;1.60;;
77010;SDS011;65945;53.148;17.956;2023-08-30T11:23:32;5.00;;;1.70;;
77010;SDS011;65945;53.148;17.956;2023-08-30T11:25:59;3.00;;;2.10;;
77010;SDS011;65945;53.148;17.956;2023-08-30T11:28:29;4.30;;;2.10;;
77010;SDS011;65945;53.148;17.956;2023-08-30T11:30:55;3.60;;;1.80;;
77010;SDS011;65945;53.148;17.956;2023-08-30T11:33:22;2.80;;;2.00;;
77010;SDS011;65945;53.148;17.956;2023-08-30T11:35:49;2.80;;;1.90;;
77010;SDS011;65945;53.148;17.956;2023-08-30T11:38:18;6.20;;;2.10;;
77010;SDS011;65945;53.148;17.956;2023-08-30T11:40:48;3.60;;;2.00;;
77010;SDS011;65945;53.148;17.956;2023-08-30T11:43:15;5.30;;;1.90;;
77010;SDS011;65945;53.148;17.956;2023-08-30T11:45:42;3.00;;;2.20;;
77010;SDS011;65945;53.148;17.956;2023-08-30T11:48:09;5.20;;;1.90;;
77010;SDS011;65945;53.148;17.956;2023-08-30T11:50:36;2.80;;;2.10;;
77010;SDS011;65945;53.148;17.956;2023-08-30T11:53:03;2.30;;;1.90;;
77010;SDS011;65945;53.148;17.956;2023-08-30T11:55:30;3.20;;;2.10;;
77010;SDS011;65945;53.148;17.956;2023-08-30T11:57:57;2.90;;;2.20;;
77010;SDS011;65945;53.148;17.956;2023-08-30T12:00:24;3.40;;;2.20;;
77010;SDS011;65945;53.148;17.956;2023-08-30T12:02:50;3.90;;;1.80;;
77010;SDS011;65945;53.148;17.956;2023-08-30T12:05:17;2.70;;;1.50;;
77010;SDS011;65945;53.148;17.956;2023-08-30T12:07:45;5.10;;;1.50;;
77010;SDS011;65945;53.148;17.956;2023-08-30T12:10:12;1.90;;;1.50;;
77010;SDS011;65945;53.148;17.956;2023-08-30T12:12:44;5.20;;;1.90;;
77010;SDS011;65945;53.148;17.956;2023-08-30T12:15:12;2.90;;;1.50;;
77010;SDS011;65945;53.148;17.956;2023-08-30T12:17:40;1.50;;;1.30;;
77010;SDS011;65945;53.148;17.956;2023-08-30T12:20:14;1.70;;;1.30;;
77010;SDS011;65945;53.148;17.956;2023-08-30T12:22:42;2.10;;;1.30;;
77010;SDS011;65945;53.148;17.956;2023-08-30T12:25:19;3.00;;;1.50;;
77010;SDS011;65945;53.148;17.956;2023-08-30T12:27:47;2.00;;;1.60;;
77010;SDS011;65945;53.148;17.956;2023-08-30T12:30:15;2.10;;;1.70;;
77010;SDS011;65945;53.148;17.956;2023-08-30T12:32:43;2.30;;;1.60;;
77010;SDS011;65945;53.148;17.956;2023-08-30T12:35:13;3.20;;;1.70;;
77010;SDS011;65945;53.148;17.956;2023-08-30T12:37:40;2.00;;;1.40;;
77010;SDS011;65945;53.148;17.956;2023-08-30T12:40:07;2.40;;;1.50;;
77010;SDS011;65945;53.148;17.956;2023-08-30T12:42:34;2.30;;;1.70;;
77010;SDS011;65945;53.148;17.956;2023-08-30T12:45:00;2.20;;;1.90;;
77010;SDS011;65945;53.148;17.956;2023-08-30T12:47:27;3.20;;;1.90;;
77010;SDS011;65945;53.148;17.956;2023-08-30T12:49:54;2.10;;;1.70;;
77010;SDS011;65945;53.148;17.956;2023-08-30T12:52:20;2.30;;;1.80;;
77010;SDS011;65945;53.148;17.956;2023-08-30T12:54:47;3.00;;;1.90;;
77010;SDS011;65945;53.148;17.956;2023-08-30T12:57:14;4.40;;;1.80;;
77010;SDS011;65945;53.148;17.956;2023-08-30T12:59:41;2.00;;;1.70;;
77010;SDS011;65945;53.148;17.956;2023-08-30T13:02:07;2.30;;;1.50;;
77010;SDS011;65945;53.148;17.956;2023-08-30T13:04:34;3.40;;;1.70;;
77010;SDS011;65945;53.148;17.956;2023-08-30T13:07:04;2.60;;;1.60;;
77010;SDS011;65945;53.148;17.956;2023-08-30T13:09:31;3.10;;;1.80;;
77010;SDS011;65945;53.148;17.956;2023-08-30T13:11:57;3.10;;;1.60;;
77010;SDS011;65945;53.148;17.956;2023-08-30T13:14:24;3.30;;;1.80;;
77010;SDS011;65945;53.148;17.956;2023-08-30T13:16:50;3.80;;;1.80;;
77010;SDS011;65945;53.148;17.956;2023-08-30T13:19:17;4.60;;;1.60;;
77010;SDS011;65945;53.148;17.956;2023-08-30T13:21:44;3.40;;;1.50;;
77010;SDS011;65945;53.148;17.956;2023-08-30T13:24:10;3.00;;;1.60;;
77010;SDS011;65945;53.148;17.956;2023-08-30T13:26:37;2.70;;;1.40;;
77010;SDS011;65945;53.148;17.956;2023-08-30T13:29:03;4.60;;;1.40;;
77010;SDS011;65945;53.148;17.956;2023-08-30T13:31:30;2.80;;;1.40;;
77010;SDS011;65945;53.148;17.956;2023-08-30T13:33:56;2.40;;;1.10;;
77010;SDS011;65945;53.148;17.956;2023-08-30T13:36:24;5.00;;;1.30;;
77010;SDS011;65945;53.148;17.956;2023-08-30T13:38:51;2.70;;;1.10;;
77010;SDS011;65945;53.148;17.956;2023-08-30T13:41:19;4.00;;;0.90;;
77010;SDS011;65945;53.148;17.956;2023-08-30T13:43:46;1.90;;;1.20;;
77010;SDS011;65945;53.148;17.956;2023-08-30T13:46:12;3.60;;;1.40;;
77010;SDS011;65945;53.148;17.956;2023-08-30T13:48:39;3.60;;;1.10;;
77010;SDS011;65945;53.148;17.956;2023-08-30T13:51:05;2.80;;;1.00;;
77010;SDS011;65945;53.148;17.956;2023-08-30T13:53:32;2.80;;;1.00;;
77010;SDS011;65945;53.148;17.956;2023-08-30T13:55:58;3.10;;;1.10;;
77010;SDS011;65945;53.148;17.956;2023-08-30T13:58:25;1.00;;;0.90;;
77010;SDS011;65945;53.148;17.956;2023-08-30T14:00:51;0.90;;;0.70;;
77010;SDS011;65945;53.148;17.956;2023-08-30T14:03:18;0.30;;;0.30;;
77010;SDS011;65945;53.148;17.956;2023-08-30T14:05:45;1.10;;;0.60;;
77010;SDS011;65945;53.148;17.956;2023-08-30T14:08:11;0.60;;;0.60;;
77010;SDS011;65945;53.148;17.956;2023-08-30T14:10:38;2.70;;;0.60;;
77010;SDS011;65945;53.148;17.956;2023-08-30T14:13:05;0.50;;;0.50;;
77010;SDS011;65945;53.148;17.956;2023-08-30T14:15:31;0.50;;;0.50;;
77010;SDS011;65945;53.148;17.956;2023-08-30T14:17:58;0.40;;;0.40;;
77010;SDS011;65945;53.148;17.956;2023-08-30T14:20:25;1.00;;;0.50;;
77010;SDS011;65945;53.148;17.956;2023-08-30T14:22:51;1.40;;;0.50;;
77010;SDS011;65945;53.148;17.956;2023-08-30T14:25:18;1.30;;;0.40;;
77010;SDS011;65945;53.148;17.956;2023-08-30T14:27:44;0.40;;;0.40;;
77010;SDS011;65945;53.148;17.956;2023-08-30T14:30:11;3.50;;;0.60;;
77010;SDS011;65945;53.148;17.956;2023-08-30T14:32:38;0.50;;;0.40;;
77010;SDS011;65945;53.148;17.956;2023-08-30T14:35:05;2.00;;;0.40;;
77010;SDS011;65945;53.148;17.956;2023-08-30T14:37:32;0.70;;;0.40;;